createdAt,value
2022-07-27T00:00:46.496Z,967.14
2022-07-27T00:01:51.112Z,967.16
2022-07-27T00:02:51.396Z,967.17
2022-07-27T00:03:46.322Z,967.18
2022-07-27T00:04:46.237Z,967.16
2022-07-27T00:05:46.157Z,967.18
2022-07-27T00:06:46.064Z,967.18
2022-07-27T00:07:46.061Z,967.20
2022-07-27T00:08:46.000Z,967.22
2022-07-27T00:09:45.938Z,967.27
2022-07-27T00:10:45.919Z,967.27
2022-07-27T00:11:45.858Z,967.31
2022-07-27T00:12:45.802Z,967.35
2022-07-27T00:13:45.770Z,967.35
2022-07-27T00:14:45.690Z,967.38
2022-07-27T00:15:45.652Z,967.39
2022-07-27T00:16:45.722Z,967.41
2022-07-27T00:17:45.527Z,967.44
2022-07-27T00:18:45.514Z,967.44
2022-07-27T00:19:45.428Z,967.42
2022-07-27T00:20:45.396Z,967.43
2022-07-27T00:21:46.279Z,967.41
2022-07-27T00:22:45.310Z,967.39
2022-07-27T00:23:45.264Z,967.37
2022-07-27T00:24:45.232Z,967.38
2022-07-27T00:25:45.181Z,967.35
2022-07-27T00:26:45.129Z,967.38
2022-07-27T00:27:45.045Z,967.36
2022-07-27T00:28:45.006Z,967.38
2022-07-27T00:29:44.948Z,967.36
2022-07-27T00:30:44.937Z,967.37
2022-07-27T00:31:44.925Z,967.38
2022-07-27T00:32:44.825Z,967.43
2022-07-27T00:33:44.782Z,967.47
2022-07-27T00:34:44.690Z,967.46
2022-07-27T00:35:44.681Z,967.43
2022-07-27T00:36:44.606Z,967.45
2022-07-27T00:37:44.576Z,967.45
2022-07-27T00:38:44.532Z,967.45
2022-07-27T00:39:44.463Z,967.47
2022-07-27T00:40:44.440Z,967.45
2022-07-27T00:41:44.366Z,967.48
2022-07-27T00:42:44.320Z,967.50
2022-07-27T00:43:44.281Z,967.52
2022-07-27T00:44:44.207Z,967.50
2022-07-27T00:45:44.204Z,967.51
2022-07-27T00:46:44.169Z,967.49
2022-07-27T00:47:44.072Z,967.48
2022-07-27T00:48:44.108Z,967.50
2022-07-27T00:49:43.972Z,967.47
2022-07-27T00:50:43.929Z,967.48
2022-07-27T00:51:43.973Z,967.49
2022-07-27T00:52:43.795Z,967.46
2022-07-27T00:53:43.784Z,967.45
2022-07-27T00:54:43.717Z,967.45
2022-07-27T00:55:43.708Z,967.43
2022-07-27T00:56:43.597Z,967.45
2022-07-27T00:57:58.162Z,967.41
2022-07-27T00:58:43.563Z,967.45
2022-07-27T00:59:43.479Z,967.42
2022-07-27T01:00:43.432Z,967.42
2022-07-27T01:01:43.526Z,967.41
2022-07-27T01:02:43.965Z,967.40
2022-07-27T01:03:43.305Z,967.44
2022-07-27T01:04:43.213Z,967.41
2022-07-27T01:05:44.159Z,967.46
2022-07-27T01:06:43.117Z,967.45
2022-07-27T01:07:43.072Z,967.44
2022-07-27T01:08:43.040Z,967.45
2022-07-27T01:09:42.965Z,967.42
2022-07-27T01:10:42.928Z,967.45
2022-07-27T01:11:42.898Z,967.40
2022-07-27T01:12:42.851Z,967.40
2022-07-27T01:13:42.778Z,967.38
2022-07-27T01:14:42.734Z,967.36
2022-07-27T01:15:42.779Z,967.39
2022-07-27T01:16:42.630Z,967.41
2022-07-27T01:17:42.563Z,967.43
2022-07-27T01:18:42.559Z,967.42
2022-07-27T01:19:42.480Z,967.43
2022-07-27T01:20:42.444Z,967.43
2022-07-27T01:21:42.356Z,967.44
2022-07-27T01:22:42.351Z,967.44
2022-07-27T01:23:42.285Z,967.47
2022-07-27T01:24:42.231Z,967.50
2022-07-27T01:25:42.165Z,967.46
2022-07-27T01:26:42.110Z,967.46
2022-07-27T01:27:42.126Z,967.47
2022-07-27T01:28:42.057Z,967.46
2022-07-27T01:29:41.984Z,967.42
2022-07-27T01:30:41.925Z,967.41
2022-07-27T01:31:41.938Z,967.41
2022-07-27T01:32:41.830Z,967.43
2022-07-27T01:33:41.799Z,967.41
2022-07-27T01:34:41.749Z,967.40
2022-07-27T01:35:41.688Z,967.40
2022-07-27T01:36:41.625Z,967.37
2022-07-27T01:37:41.599Z,967.40
2022-07-27T01:38:41.533Z,967.39
2022-07-27T01:39:41.481Z,967.43
2022-07-27T01:40:41.469Z,967.42
2022-07-27T01:41:41.404Z,967.46
2022-07-27T01:42:41.340Z,967.45
2022-07-27T01:43:41.292Z,967.44
2022-07-27T01:44:41.234Z,967.44
2022-07-27T01:45:41.193Z,967.42
2022-07-27T01:46:41.246Z,967.43
2022-07-27T01:47:41.087Z,967.39
2022-07-27T01:48:41.078Z,967.42
2022-07-27T01:49:41.377Z,967.43
2022-07-27T01:50:40.956Z,967.41
2022-07-27T01:51:40.930Z,967.41
2022-07-27T01:52:40.837Z,967.41
2022-07-27T01:53:40.807Z,967.41
2022-07-27T01:54:40.740Z,967.39
2022-07-27T01:55:40.727Z,967.39
2022-07-27T01:56:40.663Z,967.40
2022-07-27T01:57:40.592Z,967.39
2022-07-27T01:58:40.577Z,967.39
2022-07-27T01:59:40.474Z,967.40
2022-07-27T02:00:40.479Z,967.35
2022-07-27T02:01:40.461Z,967.36
2022-07-27T02:02:40.336Z,967.31
2022-07-27T02:03:40.303Z,967.31
2022-07-27T02:04:40.277Z,967.31
2022-07-27T02:05:40.285Z,967.30
2022-07-27T02:06:40.133Z,967.32
2022-07-27T02:07:40.074Z,967.28
2022-07-27T02:08:40.050Z,967.28
2022-07-27T02:09:39.974Z,967.29
2022-07-27T02:10:39.976Z,967.29
2022-07-27T02:11:39.923Z,967.30
2022-07-27T02:12:39.860Z,967.31
2022-07-27T02:13:39.800Z,967.33
2022-07-27T02:14:39.722Z,967.32
2022-07-27T02:15:43.269Z,967.32
2022-07-27T02:16:39.704Z,967.33
2022-07-27T02:17:39.597Z,967.34
2022-07-27T02:18:39.536Z,967.37
2022-07-27T02:19:39.517Z,967.35
2022-07-27T02:20:39.472Z,967.35
2022-07-27T02:21:39.388Z,967.36
2022-07-27T02:22:39.327Z,967.32
2022-07-27T02:23:39.292Z,967.35
2022-07-27T02:24:39.238Z,967.31
2022-07-27T02:25:39.169Z,967.31
2022-07-27T02:26:39.152Z,967.29
2022-07-27T02:27:39.237Z,967.32
2022-07-27T02:28:39.017Z,967.29
2022-07-27T02:29:38.992Z,967.30
2022-07-27T02:30:39.034Z,967.27
2022-07-27T02:31:38.869Z,967.33
2022-07-27T02:32:38.889Z,967.33
2022-07-27T02:33:38.761Z,967.31
2022-07-27T02:34:38.735Z,967.31
2022-07-27T02:35:38.715Z,967.32
2022-07-27T02:36:38.624Z,967.35
2022-07-27T02:37:38.575Z,967.35
2022-07-27T02:38:38.559Z,967.36
2022-07-27T02:39:38.489Z,967.36
2022-07-27T02:40:38.455Z,967.35
2022-07-27T02:41:38.416Z,967.36
2022-07-27T02:42:38.327Z,967.35
2022-07-27T02:43:38.290Z,967.38
2022-07-27T02:44:38.246Z,967.36
2022-07-27T02:45:38.218Z,967.37
2022-07-27T02:46:38.225Z,967.35
2022-07-27T02:47:38.077Z,967.35
2022-07-27T02:48:38.062Z,967.37
2022-07-27T02:49:37.975Z,967.35
2022-07-27T02:50:37.956Z,967.36
2022-07-27T02:51:39.485Z,967.36
2022-07-27T02:52:37.825Z,967.38
2022-07-27T02:53:37.798Z,967.36
2022-07-27T02:54:37.745Z,967.41
2022-07-27T02:55:37.679Z,967.44
2022-07-27T02:56:37.670Z,967.43
2022-07-27T02:57:44.376Z,967.44
2022-07-27T02:58:37.575Z,967.43
2022-07-27T02:59:37.486Z,967.44
2022-07-27T03:00:37.424Z,967.39
2022-07-27T03:01:37.492Z,967.44
2022-07-27T03:02:37.356Z,967.41
2022-07-27T03:03:37.416Z,967.38
2022-07-27T03:04:37.259Z,967.39
2022-07-27T03:05:37.173Z,967.36
2022-07-27T03:06:37.159Z,967.35
2022-07-27T03:07:37.075Z,967.35
2022-07-27T03:08:37.045Z,967.30
2022-07-27T03:09:36.996Z,967.35
2022-07-27T03:10:36.940Z,967.32
2022-07-27T03:11:36.898Z,967.34
2022-07-27T03:12:36.829Z,967.36
2022-07-27T03:13:36.778Z,967.33
2022-07-27T03:14:36.755Z,967.36
2022-07-27T03:15:36.708Z,967.37
2022-07-27T03:16:36.652Z,967.38
2022-07-27T03:17:36.573Z,967.37
2022-07-27T03:18:36.525Z,967.34
2022-07-27T03:19:36.495Z,967.36
2022-07-27T03:20:36.446Z,967.36
2022-07-27T03:21:36.382Z,967.32
2022-07-27T03:22:36.346Z,967.33
2022-07-27T03:23:36.291Z,967.30
2022-07-27T03:24:36.225Z,967.32
2022-07-27T03:25:36.148Z,967.27
2022-07-27T03:26:36.128Z,967.32
2022-07-27T03:27:36.071Z,967.33
2022-07-27T03:28:36.041Z,967.34
2022-07-27T03:29:35.946Z,967.37
2022-07-27T03:30:35.989Z,967.38
2022-07-27T03:31:35.899Z,967.36
2022-07-27T03:32:35.814Z,967.37
2022-07-27T03:33:35.799Z,967.38
2022-07-27T03:34:35.712Z,967.39
2022-07-27T03:35:35.694Z,967.37
2022-07-27T03:36:35.633Z,967.34
2022-07-27T03:37:35.572Z,967.34
2022-07-27T03:38:35.542Z,967.38
2022-07-27T03:39:35.477Z,967.35
2022-07-27T03:40:35.450Z,967.41
2022-07-27T03:41:35.379Z,967.38
2022-07-27T03:42:35.345Z,967.42
2022-07-27T03:43:35.283Z,967.41
2022-07-27T03:44:35.203Z,967.38
2022-07-27T03:45:35.239Z,967.40
2022-07-27T03:46:35.114Z,967.39
2022-07-27T03:47:35.057Z,967.38
2022-07-27T03:48:35.061Z,967.39
2022-07-27T03:49:35.047Z,967.42
2022-07-27T03:50:34.921Z,967.38
2022-07-27T03:51:34.893Z,967.42
2022-07-27T03:52:34.844Z,967.40
2022-07-27T03:53:34.789Z,967.43
2022-07-27T03:54:34.701Z,967.42
2022-07-27T03:55:34.688Z,967.42
2022-07-27T03:56:34.626Z,967.39
2022-07-27T03:57:34.544Z,967.38
2022-07-27T03:58:34.515Z,967.40
2022-07-27T03:59:34.454Z,967.37
2022-07-27T04:00:34.429Z,967.36
2022-07-27T04:01:35.010Z,967.43
2022-07-27T04:02:34.379Z,967.43
2022-07-27T04:03:34.301Z,967.40
2022-07-27T04:04:34.230Z,967.44
2022-07-27T04:05:34.167Z,967.46
2022-07-27T04:06:34.101Z,967.47
2022-07-27T04:07:34.077Z,967.46
2022-07-27T04:08:34.017Z,967.49
2022-07-27T04:09:33.978Z,967.49
2022-07-27T04:10:33.893Z,967.50
2022-07-27T04:11:33.886Z,967.52
2022-07-27T04:12:33.817Z,967.53
2022-07-27T04:13:33.784Z,967.48
2022-07-27T04:14:33.703Z,967.44
2022-07-27T04:15:33.691Z,967.51
2022-07-27T04:16:36.252Z,967.51
2022-07-27T04:17:56.221Z,967.49
2022-07-27T04:18:33.483Z,967.46
2022-07-27T04:19:33.438Z,967.44
2022-07-27T04:20:33.439Z,967.43
2022-07-27T04:21:33.698Z,967.42
2022-07-27T04:22:33.346Z,967.42
2022-07-27T04:23:37.979Z,967.42
2022-07-27T04:24:33.208Z,967.40
2022-07-27T04:25:33.210Z,967.37
2022-07-27T04:26:33.123Z,967.37
2022-07-27T04:27:33.071Z,967.37
2022-07-27T04:28:33.006Z,967.35
2022-07-27T04:29:32.957Z,967.37
2022-07-27T04:30:32.944Z,967.38
2022-07-27T04:31:32.908Z,967.40
2022-07-27T04:32:32.808Z,967.40
2022-07-27T04:33:32.755Z,967.40
2022-07-27T04:34:32.695Z,967.42
2022-07-27T04:35:32.618Z,967.43
2022-07-27T04:36:32.610Z,967.44
2022-07-27T04:37:32.684Z,967.40
2022-07-27T04:38:32.507Z,967.41
2022-07-27T04:39:32.480Z,967.40
2022-07-27T04:40:41.871Z,967.39
2022-07-27T04:41:32.322Z,967.42
2022-07-27T04:42:32.260Z,967.38
2022-07-27T04:43:32.222Z,967.41
2022-07-27T04:44:32.158Z,967.43
2022-07-27T04:45:32.190Z,967.45
2022-07-27T04:46:32.127Z,967.47
2022-07-27T04:47:32.013Z,967.51
2022-07-27T04:48:32.010Z,967.49
2022-07-27T04:49:31.916Z,967.54
2022-07-27T04:50:31.856Z,967.52
2022-07-27T04:51:34.699Z,967.53
2022-07-27T04:52:31.752Z,967.51
2022-07-27T04:53:31.715Z,967.54
2022-07-27T04:54:31.667Z,967.54
2022-07-27T04:55:31.614Z,967.56
2022-07-27T04:56:31.552Z,967.51
2022-07-27T04:57:31.592Z,967.54
2022-07-27T04:58:31.449Z,967.54
2022-07-27T04:59:31.400Z,967.50
2022-07-27T05:00:31.394Z,967.52
2022-07-27T05:01:35.163Z,967.53
2022-07-27T05:02:31.286Z,967.56
2022-07-27T05:03:31.211Z,967.55
2022-07-27T05:04:31.218Z,967.62
2022-07-27T05:05:31.100Z,967.62
2022-07-27T05:06:31.044Z,967.63
2022-07-27T05:07:31.012Z,967.63
2022-07-27T05:08:30.945Z,967.62
2022-07-27T05:09:30.896Z,967.60
2022-07-27T05:10:30.860Z,967.63
2022-07-27T05:11:30.793Z,967.60
2022-07-27T05:12:30.742Z,967.62
2022-07-27T05:13:30.705Z,967.62
2022-07-27T05:14:30.660Z,967.61
2022-07-27T05:15:55.008Z,967.60
2022-07-27T05:16:30.588Z,967.61
2022-07-27T05:17:30.490Z,967.62
2022-07-27T05:18:30.439Z,967.66
2022-07-27T05:19:40.709Z,967.66
2022-07-27T05:20:30.357Z,967.69
2022-07-27T05:21:30.287Z,967.67
2022-07-27T05:22:30.242Z,967.66
2022-07-27T05:23:30.190Z,967.67
2022-07-27T05:24:30.139Z,967.69
2022-07-27T05:25:30.106Z,967.71
2022-07-27T05:26:30.037Z,967.67
2022-07-27T05:27:29.987Z,967.71
2022-07-27T05:28:29.942Z,967.70
2022-07-27T05:29:29.885Z,967.68
2022-07-27T05:30:29.852Z,967.74
2022-07-27T05:31:29.837Z,967.76
2022-07-27T05:32:29.748Z,967.77
2022-07-27T05:33:29.690Z,967.77
2022-07-27T05:34:29.634Z,967.81
2022-07-27T05:35:29.614Z,967.84
2022-07-27T05:36:29.535Z,967.86
2022-07-27T05:37:29.484Z,967.88
2022-07-27T05:38:29.433Z,967.89
2022-07-27T05:39:29.380Z,967.87
2022-07-27T05:40:29.349Z,967.88
2022-07-27T05:41:29.280Z,967.85
2022-07-27T05:42:29.231Z,967.87
2022-07-27T05:43:29.198Z,967.89
2022-07-27T05:44:29.138Z,967.89
2022-07-27T05:45:29.113Z,967.86
2022-07-27T05:46:32.665Z,967.87
2022-07-27T05:47:28.982Z,967.89
2022-07-27T05:48:28.934Z,967.85
2022-07-27T05:49:28.942Z,967.91
2022-07-27T05:50:28.887Z,967.88
2022-07-27T05:51:28.783Z,967.87
2022-07-27T05:52:28.746Z,967.85
2022-07-27T05:53:28.680Z,967.90
2022-07-27T05:54:28.629Z,967.93
2022-07-27T05:55:28.580Z,967.93
2022-07-27T05:56:28.529Z,967.91
2022-07-27T05:57:28.493Z,967.93
2022-07-27T05:58:28.430Z,967.95
2022-07-27T05:59:28.378Z,967.96
2022-07-27T06:00:28.444Z,968.01
2022-07-27T06:01:28.330Z,967.98
2022-07-27T06:02:28.247Z,968.00
2022-07-27T06:03:28.263Z,968.00
2022-07-27T06:04:28.132Z,968.03
2022-07-27T06:05:28.085Z,968.06
2022-07-27T06:06:28.029Z,968.06
2022-07-27T06:07:27.981Z,968.07
2022-07-27T06:08:27.945Z,968.10
2022-07-27T06:09:27.893Z,968.03
2022-07-27T06:10:27.877Z,968.04
2022-07-27T06:11:27.796Z,968.09
2022-07-27T06:12:30.239Z,968.08
2022-07-27T06:13:28.516Z,968.11
2022-07-27T06:14:27.640Z,968.03
2022-07-27T06:15:27.581Z,968.05
2022-07-27T06:16:28.004Z,967.99
2022-07-27T06:17:27.479Z,967.99
2022-07-27T06:18:27.427Z,968.02
2022-07-27T06:19:36.011Z,967.97
2022-07-27T06:20:27.446Z,968.00
2022-07-27T06:21:27.293Z,968.00
2022-07-27T06:22:27.229Z,968.01
2022-07-27T06:23:27.194Z,967.99
2022-07-27T06:24:27.131Z,968.03
2022-07-27T06:25:33.981Z,968.04
2022-07-27T06:26:27.046Z,968.07
2022-07-27T06:27:29.616Z,968.08
2022-07-27T06:28:26.944Z,968.09
2022-07-27T06:29:26.881Z,968.06
2022-07-27T06:30:26.871Z,968.13
2022-07-27T06:31:26.863Z,968.09
2022-07-27T06:32:26.734Z,968.10
2022-07-27T06:33:26.685Z,968.13
2022-07-27T06:34:26.632Z,968.14
2022-07-27T06:35:26.598Z,968.20
2022-07-27T06:36:26.552Z,968.14
2022-07-27T06:37:26.483Z,968.13
2022-07-27T06:38:26.432Z,968.11
2022-07-27T06:39:26.385Z,968.13
2022-07-27T06:40:29.592Z,968.11
2022-07-27T06:41:26.299Z,968.14
2022-07-27T06:42:26.237Z,968.17
2022-07-27T06:43:26.187Z,968.16
2022-07-27T06:44:26.153Z,968.20
2022-07-27T06:45:26.097Z,968.20
2022-07-27T06:46:26.180Z,968.19
2022-07-27T06:47:28.788Z,968.21
2022-07-27T06:48:25.940Z,968.21
2022-07-27T06:49:25.966Z,968.24
2022-07-27T06:50:25.886Z,968.27
2022-07-27T06:51:25.789Z,968.27
2022-07-27T06:52:25.746Z,968.28
2022-07-27T06:53:25.706Z,968.28
2022-07-27T06:54:25.656Z,968.25
2022-07-27T06:55:25.593Z,968.24
2022-07-27T06:56:25.561Z,968.24
2022-07-27T06:57:25.538Z,968.22
2022-07-27T06:58:25.448Z,968.22
2022-07-27T06:59:25.398Z,968.18
2022-07-27T07:00:25.394Z,968.20
2022-07-27T07:01:25.346Z,968.22
2022-07-27T07:02:25.245Z,968.23
2022-07-27T07:03:25.491Z,968.20
2022-07-27T07:04:25.435Z,968.23
2022-07-27T07:05:25.117Z,968.22
2022-07-27T07:06:25.067Z,968.22
2022-07-27T07:07:25.004Z,968.23
2022-07-27T07:08:24.954Z,968.25
2022-07-27T07:09:24.906Z,968.25
2022-07-27T07:10:25.007Z,968.27
2022-07-27T07:11:24.808Z,968.25
2022-07-27T07:12:24.758Z,968.26
2022-07-27T07:13:24.708Z,968.28
2022-07-27T07:14:24.675Z,968.32
2022-07-27T07:15:24.616Z,968.28
2022-07-27T07:16:24.645Z,968.28
2022-07-27T07:17:24.513Z,968.30
2022-07-27T07:18:24.483Z,968.29
2022-07-27T07:19:24.417Z,968.28
2022-07-27T07:20:24.442Z,968.29
2022-07-27T07:21:24.320Z,968.31
2022-07-27T07:22:24.273Z,968.31
2022-07-27T07:23:24.234Z,968.29
2022-07-27T07:24:24.175Z,968.31
2022-07-27T07:25:24.143Z,968.28
2022-07-27T07:26:24.076Z,968.31
2022-07-27T07:27:24.028Z,968.28
2022-07-27T07:28:23.993Z,968.31
2022-07-27T07:29:23.929Z,968.34
2022-07-27T07:30:23.895Z,968.33
2022-07-27T07:31:23.863Z,968.38
2022-07-27T07:32:23.787Z,968.39
2022-07-27T07:33:23.738Z,968.41
2022-07-27T07:34:23.688Z,968.42
2022-07-27T07:35:23.649Z,968.41
2022-07-27T07:36:23.606Z,968.43
2022-07-27T07:37:23.546Z,968.41
2022-07-27T07:38:23.497Z,968.40
2022-07-27T07:39:27.820Z,968.41
2022-07-27T07:40:52.067Z,968.39
2022-07-27T07:41:23.353Z,968.39
2022-07-27T07:42:23.303Z,968.38
2022-07-27T07:43:23.271Z,968.39
2022-07-27T07:44:23.214Z,968.34
2022-07-27T07:45:23.159Z,968.35
2022-07-27T07:46:23.191Z,968.35
2022-07-27T07:47:23.062Z,968.35
2022-07-27T07:48:23.028Z,968.40
2022-07-27T07:49:39.494Z,968.41
2022-07-27T07:50:22.934Z,968.39
2022-07-27T07:51:22.870Z,968.37
2022-07-27T07:52:22.824Z,968.37
2022-07-27T07:53:22.862Z,968.38
2022-07-27T07:54:22.753Z,968.37
2022-07-27T07:55:22.678Z,968.37
2022-07-27T07:56:22.644Z,968.38
2022-07-27T07:57:22.582Z,968.40
2022-07-27T07:58:22.534Z,968.38
2022-07-27T07:59:22.488Z,968.37
2022-07-27T08:00:22.472Z,968.37
2022-07-27T08:01:22.453Z,968.36
2022-07-27T08:02:22.343Z,968.37
2022-07-27T08:03:22.435Z,968.38
2022-07-27T08:04:22.263Z,968.40
2022-07-27T08:05:22.199Z,968.43
2022-07-27T08:06:22.152Z,968.44
2022-07-27T08:07:22.105Z,968.40
2022-07-27T08:08:24.811Z,968.40
2022-07-27T08:09:22.027Z,968.36
2022-07-27T08:10:22.088Z,968.38
2022-07-27T08:11:21.917Z,968.36
2022-07-27T08:12:21.869Z,968.33
2022-07-27T08:13:22.589Z,968.33
2022-07-27T08:14:21.792Z,968.34
2022-07-27T08:15:21.726Z,968.35
2022-07-27T08:16:21.742Z,968.36
2022-07-27T08:17:21.627Z,968.36
2022-07-27T08:18:21.582Z,968.33
2022-07-27T08:19:21.534Z,968.38
2022-07-27T08:20:21.581Z,968.39
2022-07-27T08:21:21.455Z,968.39
2022-07-27T08:22:21.391Z,968.39
2022-07-27T08:23:21.344Z,968.41
2022-07-27T08:24:21.297Z,968.38
2022-07-27T08:25:21.258Z,968.38
2022-07-27T08:26:21.216Z,968.38
2022-07-27T08:27:21.170Z,968.41
2022-07-27T08:28:21.137Z,968.39
2022-07-27T08:29:23.071Z,968.42
2022-07-27T08:30:21.026Z,968.41
2022-07-27T08:31:24.513Z,968.44
2022-07-27T08:32:20.965Z,968.48
2022-07-27T08:33:20.883Z,968.41
2022-07-27T08:34:20.819Z,968.45
2022-07-27T08:35:20.772Z,968.42
2022-07-27T08:36:20.726Z,968.46
2022-07-27T08:37:20.691Z,968.44
2022-07-27T08:38:20.632Z,968.45
2022-07-27T08:40:05.394Z,968.44
2022-07-27T08:41:20.486Z,968.47
2022-07-27T08:42:20.454Z,968.50
2022-07-27T08:43:25.179Z,968.49
2022-07-27T08:44:20.361Z,968.50
2022-07-27T08:45:20.299Z,968.52
2022-07-27T08:46:20.312Z,968.53
2022-07-27T08:47:20.217Z,968.52
2022-07-27T08:48:20.157Z,968.56
2022-07-27T08:49:20.173Z,968.55
2022-07-27T08:50:20.057Z,968.52
2022-07-27T08:51:20.018Z,968.50
2022-07-27T08:52:19.983Z,968.49
2022-07-27T08:53:19.918Z,968.51
2022-07-27T08:54:19.873Z,968.53
2022-07-27T08:55:19.831Z,968.52
2022-07-27T08:56:19.780Z,968.51
2022-07-27T08:57:19.746Z,968.55
2022-07-27T08:58:19.683Z,968.54
2022-07-27T08:59:20.406Z,968.49
2022-07-27T09:00:19.755Z,968.50
2022-07-27T09:01:19.665Z,968.59
2022-07-27T09:02:19.665Z,968.53
2022-07-27T09:03:20.831Z,968.52
2022-07-27T09:04:19.401Z,968.54
2022-07-27T09:05:19.370Z,968.49
2022-07-27T09:06:19.307Z,968.49
2022-07-27T09:07:19.262Z,968.51
2022-07-27T09:08:19.236Z,968.52
2022-07-27T09:09:19.168Z,968.56
2022-07-27T09:10:19.120Z,968.58
2022-07-27T09:11:19.072Z,968.59
2022-07-27T09:12:19.027Z,968.62
2022-07-27T09:13:18.996Z,968.58
2022-07-27T09:14:18.934Z,968.61
2022-07-27T09:15:18.885Z,968.58
2022-07-27T09:16:20.444Z,968.61
2022-07-27T09:17:49.316Z,968.60
2022-07-27T09:18:18.815Z,968.63
2022-07-27T09:19:18.732Z,968.63
2022-07-27T09:20:19.301Z,968.61
2022-07-27T09:21:18.617Z,968.64
2022-07-27T09:22:18.564Z,968.63
2022-07-27T09:23:18.543Z,968.69
2022-07-27T09:24:44.477Z,968.58
2022-07-27T09:25:18.473Z,968.55
2022-07-27T09:26:30.985Z,968.58
2022-07-27T09:27:18.338Z,968.60
2022-07-27T09:28:18.294Z,968.59
2022-07-27T09:29:18.265Z,968.62
2022-07-27T09:30:18.208Z,968.62
2022-07-27T09:31:18.262Z,968.63
2022-07-27T09:32:18.129Z,968.69
2022-07-27T09:33:18.070Z,968.67
2022-07-27T09:34:18.037Z,968.71
2022-07-27T09:35:17.976Z,968.65
2022-07-27T09:36:17.953Z,968.63
2022-07-27T09:37:17.897Z,968.59
2022-07-27T09:38:17.847Z,968.68
2022-07-27T09:39:18.022Z,968.67
2022-07-27T09:40:24.272Z,968.64
2022-07-27T09:41:17.710Z,968.69
2022-07-27T09:42:52.498Z,968.68
2022-07-27T09:44:19.762Z,968.64
2022-07-27T09:44:34.732Z,968.60
2022-07-27T09:45:17.551Z,968.58
2022-07-27T09:46:17.519Z,968.58
2022-07-27T09:47:17.446Z,968.56
2022-07-27T09:48:17.400Z,968.58
2022-07-27T09:49:17.432Z,968.60
2022-07-27T09:50:17.346Z,968.63
2022-07-27T09:51:58.162Z,968.66
2022-07-27T09:52:17.229Z,968.61
2022-07-27T09:53:40.846Z,968.58
2022-07-27T09:54:17.152Z,968.62
2022-07-27T09:55:17.098Z,968.62
2022-07-27T09:56:17.050Z,968.63
2022-07-27T09:57:17.014Z,968.65
2022-07-27T09:58:16.978Z,968.60
2022-07-27T09:59:16.953Z,968.63
2022-07-27T10:00:16.874Z,968.65
2022-07-27T10:01:16.895Z,968.65
2022-07-27T10:02:16.906Z,968.61
2022-07-27T10:03:16.742Z,968.66
2022-07-27T10:04:17.344Z,968.64
2022-07-27T10:05:16.703Z,968.68
2022-07-27T10:06:16.630Z,968.70
2022-07-27T10:07:16.569Z,968.68
2022-07-27T10:08:16.534Z,968.68
2022-07-27T10:09:16.484Z,968.70
2022-07-27T10:10:16.449Z,968.71
2022-07-27T10:11:16.392Z,968.70
2022-07-27T10:12:16.351Z,968.70
2022-07-27T10:13:16.322Z,968.75
2022-07-27T10:14:16.440Z,968.75
2022-07-27T10:15:16.217Z,968.76
2022-07-27T10:16:16.309Z,968.77
2022-07-27T10:17:16.150Z,968.82
2022-07-27T10:18:16.093Z,968.79
2022-07-27T10:19:16.045Z,968.75
2022-07-27T10:20:16.004Z,968.74
2022-07-27T10:21:15.957Z,968.73
2022-07-27T10:22:15.930Z,968.78
2022-07-27T10:23:15.873Z,968.76
2022-07-27T10:24:16.109Z,968.77
2022-07-27T10:25:15.786Z,968.79
2022-07-27T10:26:15.757Z,968.77
2022-07-27T10:27:15.697Z,968.81
2022-07-27T10:28:15.664Z,968.80
2022-07-27T10:29:15.611Z,968.84
2022-07-27T10:30:15.567Z,968.84
2022-07-27T10:31:15.566Z,968.88
2022-07-27T10:32:15.497Z,968.90
2022-07-27T10:33:15.436Z,968.83
2022-07-27T10:34:15.794Z,968.85
2022-07-27T10:35:15.355Z,968.75
2022-07-27T10:36:16.933Z,968.81
2022-07-27T10:37:15.278Z,968.80
2022-07-27T10:38:15.231Z,968.84
2022-07-27T10:39:15.179Z,968.80
2022-07-27T10:40:15.144Z,968.74
2022-07-27T10:41:15.093Z,968.76
2022-07-27T10:42:15.099Z,968.78
2022-07-27T10:43:15.008Z,968.83
2022-07-27T10:44:25.043Z,968.92
2022-07-27T10:45:14.943Z,968.85
2022-07-27T10:46:15.010Z,968.81
2022-07-27T10:47:14.885Z,968.85
2022-07-27T10:48:14.807Z,968.84
2022-07-27T10:49:14.842Z,968.87
2022-07-27T10:50:14.741Z,968.92
2022-07-27T10:51:14.719Z,968.90
2022-07-27T10:52:14.684Z,968.90
2022-07-27T10:53:14.625Z,968.94
2022-07-27T10:54:14.545Z,968.89
2022-07-27T10:55:14.509Z,968.91
2022-07-27T10:56:14.468Z,968.85
2022-07-27T10:57:14.451Z,968.93
2022-07-27T10:58:14.435Z,968.89
2022-07-27T10:59:14.381Z,968.89
2022-07-27T11:00:19.448Z,968.88
2022-07-27T11:01:14.761Z,968.85
2022-07-27T11:02:14.208Z,968.87
2022-07-27T11:03:14.161Z,968.88
2022-07-27T11:04:14.650Z,968.90
2022-07-27T11:05:42.524Z,968.89
2022-07-27T11:07:24.373Z,968.90
2022-07-27T11:08:36.034Z,968.87
2022-07-27T11:10:13.905Z,968.91
2022-07-27T11:11:13.903Z,968.94
2022-07-27T11:12:13.797Z,968.92
2022-07-27T11:13:13.889Z,968.94
2022-07-27T11:14:14.059Z,968.91
2022-07-27T11:15:13.651Z,968.87
2022-07-27T11:16:23.931Z,968.93
2022-07-27T11:18:15.052Z,968.96
2022-07-27T11:19:13.928Z,968.91
2022-07-27T11:20:13.960Z,968.87
2022-07-27T11:21:13.407Z,968.95
2022-07-27T11:22:28.348Z,969.00
2022-07-27T11:23:49.959Z,968.95
2022-07-27T11:24:13.604Z,968.97
2022-07-27T11:25:13.369Z,968.94
2022-07-27T11:26:13.240Z,968.94
2022-07-27T11:27:16.234Z,968.90
2022-07-27T11:28:13.165Z,968.94
2022-07-27T11:29:13.601Z,968.91
2022-07-27T11:30:13.066Z,968.83
2022-07-27T11:31:13.072Z,968.92
2022-07-27T11:32:12.997Z,968.80
2022-07-27T11:33:12.933Z,968.82
2022-07-27T11:34:13.316Z,968.88
2022-07-27T11:35:17.680Z,968.80
2022-07-27T11:36:12.788Z,968.90
2022-07-27T11:37:12.756Z,968.85
2022-07-27T11:38:12.748Z,968.84
2022-07-27T11:39:14.839Z,968.82
2022-07-27T11:40:37.480Z,968.82
2022-07-27T11:41:28.300Z,968.79
2022-07-27T11:42:17.703Z,968.76
2022-07-27T11:43:12.531Z,968.75
2022-07-27T11:44:12.866Z,968.78
2022-07-27T11:45:12.479Z,968.74
2022-07-27T11:46:12.547Z,968.75
2022-07-27T11:47:12.375Z,968.75
2022-07-27T11:48:12.302Z,968.74
2022-07-27T11:49:12.293Z,968.65
2022-07-27T11:50:12.338Z,968.67
2022-07-27T11:51:12.186Z,968.68
2022-07-27T11:52:12.188Z,968.68
2022-07-27T11:53:12.145Z,968.70
2022-07-27T11:54:12.083Z,968.67
2022-07-27T11:55:13.538Z,968.67
2022-07-27T11:56:11.986Z,968.69
2022-07-27T11:57:11.958Z,968.79
2022-07-27T11:58:11.950Z,968.78
2022-07-27T11:59:12.012Z,968.76
2022-07-27T12:00:11.813Z,968.78
2022-07-27T12:01:11.797Z,968.75
2022-07-27T12:02:11.829Z,968.73
2022-07-27T12:03:11.694Z,968.73
2022-07-27T12:04:11.700Z,968.67
2022-07-27T12:05:11.667Z,968.56
2022-07-27T12:06:11.593Z,968.63
2022-07-27T12:07:11.553Z,968.63
2022-07-27T12:08:11.512Z,968.60
2022-07-27T12:09:11.762Z,968.61
2022-07-27T12:10:11.441Z,968.58
2022-07-27T12:11:11.449Z,968.52
2022-07-27T12:12:11.367Z,968.55
2022-07-27T12:13:11.288Z,968.56
2022-07-27T12:14:11.273Z,968.67
2022-07-27T12:15:28.446Z,968.67
2022-07-27T12:16:13.485Z,968.69
2022-07-27T12:17:11.218Z,968.63
2022-07-27T12:18:11.112Z,968.64
2022-07-27T12:19:11.398Z,968.62
2022-07-27T12:20:11.027Z,968.70
2022-07-27T12:21:11.060Z,968.61
2022-07-27T12:22:10.948Z,968.57
2022-07-27T12:23:10.887Z,968.55
2022-07-27T12:24:10.859Z,968.55
2022-07-27T12:25:15.912Z,968.55
2022-07-27T12:26:10.746Z,968.53
2022-07-27T12:27:10.724Z,968.53
2022-07-27T12:28:10.691Z,968.56
2022-07-27T12:29:10.982Z,968.54
2022-07-27T12:30:10.642Z,968.55
2022-07-27T12:31:10.638Z,968.50
2022-07-27T12:32:10.535Z,968.51